createdAt,value
2019-03-22T00:00:34.987Z,99.99
2019-03-22T00:01:35.033Z,99.99
2019-03-22T00:02:35.097Z,99.99
2019-03-22T00:03:35.153Z,99.99
2019-03-22T00:04:35.241Z,99.99
2019-03-22T00:05:35.285Z,99.99
2019-03-22T00:06:35.367Z,99.99
2019-03-22T00:07:35.401Z,99.99
2019-03-22T00:08:35.462Z,99.99
2019-03-22T00:09:35.530Z,99.99
2019-03-22T00:10:35.595Z,99.99
2019-03-22T00:11:35.646Z,99.99
2019-03-22T00:12:35.706Z,99.99
2019-03-22T00:13:35.771Z,99.99
2019-03-22T00:14:36.984Z,99.99
2019-03-22T00:15:35.901Z,99.99
2019-03-22T00:16:35.958Z,99.99
2019-03-22T00:17:36.016Z,99.99
2019-03-22T00:18:36.079Z,99.99
2019-03-22T00:19:36.235Z,99.99
2019-03-22T00:20:36.199Z,99.99
2019-03-22T00:21:36.262Z,99.99
2019-03-22T00:22:36.323Z,99.99
2019-03-22T00:23:36.382Z,99.99
2019-03-22T00:24:36.451Z,99.99
2019-03-22T00:25:36.511Z,99.99
2019-03-22T00:26:36.567Z,99.99
2019-03-22T00:27:36.642Z,99.99
2019-03-22T00:28:36.721Z,99.99
2019-03-22T00:29:36.759Z,99.99
2019-03-22T00:30:36.819Z,99.99
2019-03-22T00:31:36.875Z,99.99
2019-03-22T00:32:36.938Z,99.99
2019-03-22T00:33:36.995Z,99.99
2019-03-22T00:34:37.064Z,99.99
2019-03-22T00:35:37.128Z,99.99
2019-03-22T00:36:37.180Z,99.99
2019-03-22T00:37:37.240Z,99.99
2019-03-22T00:38:37.306Z,99.99
2019-03-22T00:39:37.374Z,99.99
2019-03-22T00:40:37.431Z,99.99
2019-03-22T00:41:37.488Z,99.99
2019-03-22T00:42:37.548Z,99.99
2019-03-22T00:43:37.608Z,99.99
2019-03-22T00:44:37.676Z,99.99
2019-03-22T00:45:37.736Z,99.99
2019-03-22T00:46:37.792Z,99.99
2019-03-22T00:47:37.852Z,99.99
2019-03-22T00:48:37.917Z,99.99
2019-03-22T00:49:37.984Z,99.99
2019-03-22T00:50:38.044Z,99.99
2019-03-22T00:51:38.100Z,99.99
2019-03-22T00:52:38.160Z,99.99
2019-03-22T00:53:38.223Z,99.99
2019-03-22T00:54:38.280Z,99.99
2019-03-22T00:55:38.360Z,99.99
2019-03-22T00:56:38.404Z,99.99
2019-03-22T00:57:38.469Z,99.99
2019-03-22T00:58:38.528Z,99.99
2019-03-22T00:59:38.589Z,99.99
2019-03-22T01:00:38.657Z,99.99
2019-03-22T01:01:38.717Z,99.99
2019-03-22T01:02:38.773Z,99.99
2019-03-22T01:03:38.833Z,99.99
2019-03-22T01:04:38.893Z,99.99
2019-03-22T01:05:38.964Z,99.99
2019-03-22T01:06:39.022Z,99.99
2019-03-22T01:07:39.079Z,99.99
2019-03-22T01:08:39.141Z,99.99
2019-03-22T01:09:39.196Z,99.99
2019-03-22T01:10:39.361Z,99.99
2019-03-22T01:11:39.321Z,99.99
2019-03-22T01:12:39.381Z,99.99
2019-03-22T01:13:39.445Z,99.99
2019-03-22T01:14:39.509Z,99.99
2019-03-22T01:15:39.573Z,99.99
2019-03-22T01:16:39.634Z,99.99
2019-03-22T01:17:39.690Z,99.99
2019-03-22T01:18:39.750Z,99.99
2019-03-22T01:19:39.810Z,99.99
2019-03-22T01:20:39.878Z,99.99
2019-03-22T01:21:39.939Z,99.99
2019-03-22T01:22:39.994Z,99.99
2019-03-22T01:23:40.054Z,99.99
2019-03-22T01:24:40.118Z,99.99
2019-03-22T01:25:40.262Z,99.99
2019-03-22T01:26:40.237Z,99.99
2019-03-22T01:27:41.429Z,99.99
2019-03-22T01:28:40.358Z,99.99
2019-03-22T01:29:40.418Z,99.99
2019-03-22T01:30:40.490Z,99.99
2019-03-22T01:31:40.550Z,99.99
2019-03-22T01:32:40.602Z,99.99
2019-03-22T01:33:40.662Z,99.99
2019-03-22T01:34:40.726Z,99.99
2019-03-22T01:35:40.794Z,99.99
2019-03-22T01:36:40.855Z,99.99
2019-03-22T01:37:40.955Z,99.99
2019-03-22T01:38:40.966Z,99.99
2019-03-22T01:39:41.033Z,99.99
2019-03-22T01:40:41.275Z,99.99
2019-03-22T01:41:41.155Z,99.99
2019-03-22T01:42:41.211Z,99.99
2019-03-22T01:43:41.274Z,99.99
2019-03-22T01:44:41.343Z,99.99
2019-03-22T01:45:41.403Z,99.99
2019-03-22T01:46:41.467Z,99.99
2019-03-22T01:47:41.515Z,99.99
2019-03-22T01:48:41.575Z,99.99
2019-03-22T01:49:41.639Z,99.99
2019-03-22T01:50:41.707Z,99.99
2019-03-22T01:51:41.767Z,99.99
2019-03-22T01:52:41.819Z,99.99
2019-03-22T01:53:41.883Z,99.99
2019-03-22T01:54:41.943Z,99.99
2019-03-22T01:55:42.015Z,99.99
2019-03-22T01:56:42.071Z,99.99
2019-03-22T01:57:52.405Z,99.99
2019-03-22T01:58:42.187Z,99.99
2019-03-22T01:59:42.248Z,99.99
2019-03-22T02:00:42.307Z,99.99
2019-03-22T02:01:42.408Z,99.99
2019-03-22T02:02:42.495Z,99.99
2019-03-22T02:03:42.492Z,99.99
2019-03-22T02:04:42.551Z,99.99
2019-03-22T02:05:42.616Z,99.99
2019-03-22T02:06:42.683Z,99.99
2019-03-22T02:07:42.754Z,99.99
2019-03-22T02:08:42.792Z,99.99
2019-03-22T02:09:42.856Z,99.99
2019-03-22T02:10:42.916Z,99.99
2019-03-22T02:11:42.988Z,99.99
2019-03-22T02:12:43.047Z,99.99
2019-03-22T02:13:43.099Z,99.99
2019-03-22T02:14:43.160Z,99.99
2019-03-22T02:15:43.225Z,99.99
2019-03-22T02:16:43.292Z,99.99
2019-03-22T02:17:43.341Z,99.99
2019-03-22T02:18:43.404Z,99.99
2019-03-22T02:19:43.461Z,99.99
2019-03-22T02:20:43.520Z,99.99
2019-03-22T02:21:43.589Z,99.99
2019-03-22T02:22:43.655Z,99.99
2019-03-22T02:23:43.705Z,99.99
2019-03-22T02:24:43.765Z,99.99
2019-03-22T02:25:43.825Z,99.99
2019-03-22T02:26:43.895Z,99.99
2019-03-22T02:27:43.963Z,99.99
2019-03-22T02:28:44.009Z,99.99
2019-03-22T02:29:44.524Z,99.99
2019-03-22T02:30:44.145Z,99.99
2019-03-22T02:31:44.217Z,99.99
2019-03-22T02:32:44.257Z,99.99
2019-03-22T02:33:44.309Z,99.99
2019-03-22T02:34:44.374Z,99.99
2019-03-22T02:35:44.438Z,99.99
2019-03-22T02:36:44.498Z,99.99
2019-03-22T02:37:44.569Z,99.99
2019-03-22T02:38:44.614Z,99.99
2019-03-22T02:39:44.991Z,99.99
2019-03-22T02:40:44.868Z,99.99
2019-03-22T02:41:44.807Z,99.99
2019-03-22T02:42:44.867Z,99.99
2019-03-22T02:43:44.919Z,99.99
2019-03-22T02:44:44.982Z,99.99
2019-03-22T02:45:45.038Z,99.99
2019-03-22T02:46:45.191Z,99.99
2019-03-22T02:47:45.163Z,99.99
2019-03-22T02:48:45.219Z,99.99
2019-03-22T02:49:45.283Z,99.99
2019-03-22T02:50:45.342Z,99.99
2019-03-22T02:51:45.411Z,99.99
2019-03-22T02:52:45.477Z,99.99
2019-03-22T02:53:45.522Z,99.99
2019-03-22T02:54:45.584Z,99.99
2019-03-22T02:55:45.678Z,99.99
2019-03-22T02:56:45.718Z,99.99
2019-03-22T02:57:45.838Z,99.99
2019-03-22T02:58:45.827Z,99.99
2019-03-22T02:59:45.892Z,99.99
2019-03-22T03:00:45.952Z,99.99
2019-03-22T03:01:46.015Z,99.99
2019-03-22T03:02:46.082Z,99.99
2019-03-22T03:03:46.133Z,99.99
2019-03-22T03:04:46.194Z,99.99
2019-03-22T03:05:46.256Z,99.99
2019-03-22T03:06:46.311Z,99.99
2019-03-22T03:07:46.464Z,99.99
2019-03-22T03:08:46.431Z,99.99
2019-03-22T03:09:46.493Z,99.99
2019-03-22T03:10:46.556Z,99.99
2019-03-22T03:11:46.616Z,99.99
2019-03-22T03:12:46.690Z,99.99
2019-03-22T03:13:46.744Z,99.99
2019-03-22T03:14:46.795Z,99.99
2019-03-22T03:15:46.856Z,99.99
2019-03-22T03:16:46.917Z,99.99
2019-03-22T03:17:46.987Z,99.99
2019-03-22T03:18:47.045Z,99.99
2019-03-22T03:19:47.101Z,99.99
2019-03-22T03:20:47.160Z,99.99
2019-03-22T03:21:47.223Z,99.99
2019-03-22T03:22:47.286Z,99.99
2019-03-22T03:23:47.368Z,99.99
2019-03-22T03:24:47.409Z,99.99
2019-03-22T03:25:47.460Z,99.99
2019-03-22T03:26:47.520Z,99.99
2019-03-22T03:27:47.586Z,99.99
2019-03-22T03:28:47.661Z,99.99
2019-03-22T03:29:47.714Z,99.99
2019-03-22T03:30:47.786Z,99.99
2019-03-22T03:31:47.825Z,99.99
2019-03-22T03:32:47.885Z,99.99
2019-03-22T03:33:47.953Z,99.99
2019-03-22T03:34:48.021Z,99.99
2019-03-22T03:35:48.066Z,99.99
2019-03-22T03:36:48.126Z,99.99
2019-03-22T03:37:48.186Z,99.99
2019-03-22T03:38:48.344Z,99.99
2019-03-22T03:39:48.314Z,99.99
2019-03-22T03:40:48.369Z,99.99
2019-03-22T03:41:48.430Z,99.99
2019-03-22T03:42:48.492Z,99.99
2019-03-22T03:43:48.559Z,99.99
2019-03-22T03:44:48.618Z,99.99
2019-03-22T03:45:48.670Z,99.99
2019-03-22T03:46:48.825Z,99.99
2019-03-22T03:47:48.790Z,99.99
2019-03-22T03:48:48.858Z,99.99
2019-03-22T03:49:48.918Z,99.99
2019-03-22T03:50:48.983Z,99.99
2019-03-22T03:51:49.035Z,99.99
2019-03-22T03:52:49.095Z,99.99
2019-03-22T03:53:49.174Z,99.99
2019-03-22T03:54:49.214Z,99.99
2019-03-22T03:55:49.275Z,99.99
2019-03-22T03:56:49.339Z,99.99
2019-03-22T03:57:49.394Z,99.99
2019-03-22T03:58:52.762Z,99.99
2019-03-22T03:59:49.522Z,99.99
2019-03-22T04:00:49.583Z,99.99
2019-03-22T04:01:49.633Z,99.99
2019-03-22T04:02:49.708Z,99.99
2019-03-22T04:03:49.774Z,99.99
2019-03-22T04:04:49.825Z,99.99
2019-03-22T04:05:49.882Z,99.99
2019-03-22T04:06:49.945Z,99.99
2019-03-22T04:07:49.999Z,99.99
2019-03-22T04:08:50.072Z,99.99
2019-03-22T04:09:50.128Z,99.99
2019-03-22T04:10:50.179Z,99.99
2019-03-22T04:11:50.238Z,99.99
2019-03-22T04:12:50.313Z,99.99
2019-03-22T04:13:50.366Z,99.99
2019-03-22T04:14:50.427Z,99.99
2019-03-22T04:15:50.479Z,99.99
2019-03-22T04:16:50.539Z,99.99
2019-03-22T04:17:50.599Z,99.99
2019-03-22T04:18:50.668Z,99.99
2019-03-22T04:19:50.882Z,99.99
2019-03-22T04:20:50.789Z,99.99
2019-03-22T04:21:50.869Z,99.99
2019-03-22T04:22:50.904Z,99.99
2019-03-22T04:23:50.974Z,99.99
2019-03-22T04:24:51.028Z,99.99
2019-03-22T04:25:51.084Z,99.99
2019-03-22T04:26:51.143Z,99.99
2019-03-22T04:27:51.207Z,99.99
2019-03-22T04:29:06.172Z,99.99
2019-03-22T04:29:51.339Z,99.99
2019-03-22T04:30:51.385Z,99.99
2019-03-22T04:31:51.443Z,99.99
2019-03-22T04:32:51.505Z,99.99
2019-03-22T04:33:51.571Z,99.99
2019-03-22T04:34:51.633Z,99.99
2019-03-22T04:35:51.691Z,99.99
2019-03-22T04:36:51.752Z,99.99
2019-03-22T04:37:51.805Z,99.99
2019-03-22T04:38:51.867Z,99.99
2019-03-22T04:39:51.935Z,99.99
2019-03-22T04:40:51.992Z,99.99
2019-03-22T04:41:52.044Z,99.99
2019-03-22T04:42:52.109Z,99.99
2019-03-22T04:43:52.173Z,99.99
2019-03-22T04:44:52.244Z,99.99
2019-03-22T04:45:52.288Z,99.99
2019-03-22T04:46:52.349Z,99.99
2019-03-22T04:47:52.414Z,99.99
2019-03-22T04:48:52.470Z,99.99
2019-03-22T04:49:52.536Z,99.99
2019-03-22T04:50:52.592Z,99.99
2019-03-22T04:51:52.648Z,99.99
2019-03-22T04:52:52.709Z,99.99
2019-03-22T04:53:52.840Z,99.99
2019-03-22T04:54:52.837Z,99.99
2019-03-22T04:55:52.896Z,99.99
2019-03-22T04:56:52.949Z,99.99
2019-03-22T04:57:53.012Z,99.99
2019-03-22T04:58:53.069Z,99.99
2019-03-22T04:59:53.152Z,99.99
2019-03-22T05:00:53.202Z,99.99
2019-03-22T05:01:53.251Z,99.99
2019-03-22T05:02:53.309Z,99.99
2019-03-22T05:03:53.369Z,99.99
2019-03-22T05:04:53.437Z,99.99
2019-03-22T05:05:53.501Z,99.99
2019-03-22T05:06:53.549Z,99.99
2019-03-22T05:07:53.610Z,99.99
2019-03-22T05:08:53.673Z,99.99
2019-03-22T05:09:53.740Z,99.99
2019-03-22T05:10:53.799Z,99.99
2019-03-22T05:11:53.850Z,99.99
2019-03-22T05:12:53.910Z,99.99
2019-03-22T05:13:53.969Z,99.99
2019-03-22T05:14:54.038Z,99.99
2019-03-22T05:15:54.097Z,99.99
2019-03-22T05:16:54.150Z,99.99
2019-03-22T05:17:54.210Z,99.99
2019-03-22T05:18:54.270Z,99.99
2019-03-22T05:19:54.338Z,99.99
2019-03-22T05:20:54.400Z,99.99
2019-03-22T05:21:54.453Z,99.99
2019-03-22T05:22:54.513Z,99.99
2019-03-22T05:23:54.572Z,99.99
2019-03-22T05:24:54.638Z,99.99
2019-03-22T05:25:54.699Z,99.99
2019-03-22T05:26:54.750Z,99.99
2019-03-22T05:27:54.811Z,99.99
2019-03-22T05:28:54.871Z,99.99
2019-03-22T05:29:54.939Z,99.99
2019-03-22T05:30:55.003Z,99.99
2019-03-22T05:31:55.051Z,99.99
2019-03-22T05:32:55.110Z,99.99
2019-03-22T05:33:55.171Z,99.99
2019-03-22T05:34:55.235Z,99.99
2019-03-22T05:35:55.320Z,99.99
2019-03-22T05:36:55.351Z,99.99
2019-03-22T05:37:55.411Z,99.99
2019-03-22T05:38:55.474Z,99.99
2019-03-22T05:39:55.539Z,99.99
2019-03-22T05:40:55.602Z,99.99
2019-03-22T05:41:55.659Z,99.99
2019-03-22T05:42:55.710Z,99.99
2019-03-22T05:43:55.775Z,99.99
2019-03-22T05:44:55.835Z,99.99
2019-03-22T05:45:55.899Z,99.99
2019-03-22T05:46:55.961Z,99.99
2019-03-22T05:47:56.015Z,99.99
2019-03-22T05:48:56.072Z,99.99
2019-03-22T05:49:56.139Z,99.99
2019-03-22T05:50:56.307Z,99.99
2019-03-22T05:51:56.259Z,99.99
2019-03-22T05:52:56.323Z,99.99
2019-03-22T05:53:56.376Z,99.99
2019-03-22T05:54:56.436Z,99.99
2019-03-22T05:55:56.504Z,99.99
2019-03-22T05:56:56.566Z,99.99
2019-03-22T05:57:56.616Z,99.99
2019-03-22T05:58:56.680Z,99.99
2019-03-22T05:59:56.736Z,99.99
2019-03-22T06:00:56.804Z,99.99
2019-03-22T06:01:56.868Z,99.99
2019-03-22T06:02:56.916Z,99.99
2019-03-22T06:03:56.978Z,99.99
2019-03-22T06:04:57.036Z,99.99
2019-03-22T06:05:57.208Z,99.99
2019-03-22T06:06:57.161Z,99.99
2019-03-22T06:07:57.220Z,99.99
2019-03-22T06:08:57.280Z,99.99
2019-03-22T06:09:57.344Z,99.99
2019-03-22T06:10:57.411Z,99.99
2019-03-22T06:11:57.469Z,99.99
2019-03-22T06:12:57.520Z,99.99
2019-03-22T06:13:57.581Z,99.99
2019-03-22T06:14:57.641Z,99.99
2019-03-22T06:15:57.712Z,99.99
2019-03-22T06:16:57.768Z,99.99
2019-03-22T06:17:57.823Z,99.99
2019-03-22T06:18:57.885Z,99.99
2019-03-22T06:19:57.949Z,99.99
2019-03-22T06:20:58.013Z,99.99
2019-03-22T06:21:58.074Z,99.99
2019-03-22T06:22:58.131Z,99.99
2019-03-22T06:23:58.190Z,99.99
2019-03-22T06:24:58.248Z,99.99
2019-03-22T06:25:58.320Z,99.99
2019-03-22T06:26:58.377Z,99.99
2019-03-22T06:27:58.429Z,99.99
2019-03-22T06:28:58.494Z,99.99
2019-03-22T06:29:58.549Z,99.99
2019-03-22T06:30:58.621Z,99.99
2019-03-22T06:31:58.677Z,99.99
2019-03-22T06:32:58.733Z,99.99
2019-03-22T06:33:58.793Z,99.99
2019-03-22T06:34:58.854Z,99.99
2019-03-22T06:35:58.923Z,99.99
2019-03-22T06:36:58.986Z,99.99
2019-03-22T06:37:59.042Z,99.99
2019-03-22T06:38:59.102Z,99.99
2019-03-22T06:39:59.163Z,99.99
2019-03-22T06:40:59.274Z,99.99
2019-03-22T06:41:59.282Z,99.99
2019-03-22T06:42:59.342Z,99.99
2019-03-22T06:43:59.406Z,99.99
2019-03-22T06:44:59.471Z,99.99
2019-03-22T06:45:59.534Z,99.99
2019-03-22T06:46:59.594Z,99.99
2019-03-22T06:47:59.650Z,99.99
2019-03-22T06:48:59.710Z,99.99
2019-03-22T06:49:59.775Z,99.99
2019-03-22T06:50:59.839Z,99.99
2019-03-22T06:51:59.902Z,99.99
2019-03-22T06:52:59.958Z,99.99
2019-03-22T06:54:00.020Z,99.99
2019-03-22T06:55:00.084Z,99.99
2019-03-22T06:56:00.245Z,99.99
2019-03-22T06:57:00.207Z,99.99
2019-03-22T06:58:00.263Z,99.99
2019-03-22T06:59:00.332Z,99.99
2019-03-22T07:00:06.273Z,99.99
2019-03-22T07:01:00.455Z,99.99
2019-03-22T07:02:00.519Z,99.99
2019-03-22T07:03:00.571Z,99.99
2019-03-22T07:04:00.640Z,99.99
2019-03-22T07:05:00.697Z,99.99
2019-03-22T07:06:00.765Z,99.99
2019-03-22T07:07:00.829Z,99.99
2019-03-22T07:08:00.884Z,99.99
2019-03-22T07:09:00.947Z,99.99
2019-03-22T07:10:01.003Z,99.99
2019-03-22T07:11:01.071Z,99.99
2019-03-22T07:12:01.136Z,99.99
2019-03-22T07:13:01.191Z,99.99
2019-03-22T07:14:01.252Z,99.99
2019-03-22T07:15:01.320Z,99.99
2019-03-22T07:16:01.384Z,99.99
2019-03-22T07:17:01.445Z,99.99
2019-03-22T07:18:01.501Z,99.99
2019-03-22T07:19:01.560Z,99.99
2019-03-22T07:20:01.624Z,99.99
2019-03-22T07:21:01.698Z,99.99
2019-03-22T07:22:01.756Z,99.99
2019-03-22T07:23:01.808Z,99.99
2019-03-22T07:24:01.876Z,99.99
2019-03-22T07:25:01.937Z,99.99
2019-03-22T07:26:02.004Z,99.99
2019-03-22T07:27:02.068Z,99.99
2019-03-22T07:28:02.125Z,99.99
2019-03-22T07:29:02.181Z,99.99
2019-03-22T07:30:02.244Z,99.99
2019-03-22T07:31:02.320Z,99.99
2019-03-22T07:32:02.393Z,99.99
2019-03-22T07:33:02.433Z,99.99
2019-03-22T07:34:02.494Z,99.99
2019-03-22T07:35:02.558Z,99.99
2019-03-22T07:36:02.686Z,99.99
2019-03-22T07:37:02.688Z,99.99
2019-03-22T07:38:02.753Z,99.99
2019-03-22T07:39:02.804Z,99.99
2019-03-22T07:40:02.870Z,99.99
2019-03-22T07:41:02.929Z,99.99
2019-03-22T07:42:03.001Z,99.99
2019-03-22T07:43:03.061Z,99.99
2019-03-22T07:44:03.117Z,99.99
2019-03-22T07:45:03.181Z,99.99
2019-03-22T07:46:03.245Z,99.99
2019-03-22T07:47:03.317Z,99.99
2019-03-22T07:48:03.375Z,98.66
2019-03-22T07:49:03.441Z,96.56
2019-03-22T07:50:03.501Z,95.32
2019-03-22T07:51:03.570Z,96.03
2019-03-22T07:52:03.637Z,94.60
2019-03-22T07:53:03.698Z,94.27
2019-03-22T07:54:03.893Z,91.83
2019-03-22T07:55:03.823Z,88.72
2019-03-22T07:56:03.890Z,88.53
2019-03-22T07:57:03.966Z,88.09
2019-03-22T07:58:04.026Z,86.04
2019-03-22T07:59:04.086Z,83.31
2019-03-22T08:00:04.150Z,83.79
2019-03-22T08:01:04.218Z,82.68
2019-03-22T08:02:04.302Z,82.30
2019-03-22T08:03:04.355Z,80.77
2019-03-22T08:04:04.418Z,80.77
2019-03-22T08:05:04.493Z,79.47
2019-03-22T08:06:04.550Z,80.81
2019-03-22T08:07:04.624Z,79.57
2019-03-22T08:08:04.707Z,78.64
2019-03-22T08:09:04.755Z,77.31
2019-03-22T08:10:04.849Z,76.77
2019-03-22T08:11:04.888Z,76.19
2019-03-22T08:12:04.962Z,76.00
2019-03-22T08:13:05.031Z,76.29
2019-03-22T08:14:05.096Z,73.70
2019-03-22T08:15:05.160Z,74.69
2019-03-22T08:16:05.325Z,73.93
2019-03-22T08:17:05.315Z,72.97
2019-03-22T08:18:05.361Z,72.81
2019-03-22T08:19:05.445Z,73.00
2019-03-22T08:20:05.499Z,73.77
2019-03-22T08:21:05.563Z,72.53
2019-03-22T08:22:05.639Z,70.74
2019-03-22T08:23:05.712Z,69.20
2019-03-22T08:24:05.772Z,69.40
2019-03-22T08:25:05.841Z,70.36
2019-03-22T08:26:05.936Z,69.68
2019-03-22T08:27:05.984Z,68.79
2019-03-22T08:28:06.056Z,70.61
2019-03-22T08:29:06.116Z,70.99
2019-03-22T08:30:06.183Z,72.01
2019-03-22T08:31:06.283Z,72.81
2019-03-22T08:32:06.325Z,72.05
2019-03-22T08:33:06.483Z,70.61
2019-03-22T08:34:06.469Z,69.36
2019-03-22T08:35:06.541Z,69.17
2019-03-22T08:36:06.657Z,70.32
2019-03-22T08:37:06.669Z,71.57
2019-03-22T08:38:06.746Z,71.66
2019-03-22T08:39:06.834Z,72.05
2019-03-22T08:40:06.876Z,71.19
2019-03-22T08:41:06.961Z,71.70
2019-03-22T08:42:07.008Z,70.36
2019-03-22T08:43:07.120Z,69.34
2019-03-22T08:44:07.161Z,69.34
2019-03-22T08:45:07.339Z,67.90
2019-03-22T08:46:07.285Z,67.70
2019-03-22T08:47:07.364Z,68.28
2019-03-22T08:48:07.450Z,68.95
2019-03-22T08:49:09.560Z,68.51
2019-03-22T08:50:07.583Z,67.83
2019-03-22T08:51:07.633Z,67.83
2019-03-22T08:52:07.740Z,66.81
2019-03-22T08:53:07.929Z,65.59
2019-03-22T08:54:07.848Z,63.48
2019-03-22T08:55:07.917Z,62.80
2019-03-22T08:56:07.983Z,64.56
2019-03-22T08:57:08.054Z,63.60
2019-03-22T08:58:08.146Z,63.89
2019-03-22T08:59:08.215Z,61.77
2019-03-22T09:00:08.305Z,62.26
2019-03-22T09:01:08.329Z,61.13
2019-03-22T09:02:08.559Z,60.87
2019-03-22T09:03:08.478Z,60.20
2019-03-22T09:04:08.551Z,59.14
2019-03-22T09:05:08.629Z,59.23
2019-03-22T09:06:08.680Z,59.43
2019-03-22T09:07:08.750Z,60.00
2019-03-22T09:08:08.843Z,60.58
2019-03-22T09:09:08.948Z,60.17
2019-03-22T09:10:08.989Z,59.78
2019-03-22T09:11:09.054Z,60.72
2019-03-22T09:12:09.127Z,61.49
2019-03-22T09:13:09.348Z,61.77
2019-03-22T09:14:09.242Z,61.42
2019-03-22T09:15:09.335Z,59.81
2019-03-22T09:16:09.383Z,59.55
2019-03-22T09:17:09.484Z,58.59
2019-03-22T09:18:09.530Z,58.75
2019-03-22T09:19:09.634Z,59.72
2019-03-22T09:20:09.666Z,59.65
2019-03-22T09:21:09.734Z,59.36
2019-03-22T09:22:09.807Z,60.03
2019-03-22T09:23:09.887Z,59.45
2019-03-22T09:24:10.010Z,58.91
2019-03-22T09:25:10.015Z,58.94
2019-03-22T09:26:10.121Z,57.59
2019-03-22T09:27:10.160Z,58.65
2019-03-22T09:28:10.554Z,56.72
2019-03-22T09:29:10.311Z,57.78
2019-03-22T09:30:11.066Z,57.42
2019-03-22T09:31:10.997Z,57.71
2019-03-22T09:32:10.603Z,56.36
2019-03-22T09:33:13.331Z,57.52
2019-03-22T09:34:11.279Z,55.20
2019-03-22T09:35:10.723Z,56.43
2019-03-22T09:36:10.799Z,56.33
2019-03-22T09:37:10.863Z,56.21
2019-03-22T09:38:13.215Z,57.65
2019-03-22T09:39:11.016Z,58.04
2019-03-22T09:40:11.081Z,57.46
2019-03-22T09:41:11.201Z,58.23
2019-03-22T09:42:11.221Z,58.52
2019-03-22T09:43:11.308Z,57.75
2019-03-22T09:44:11.363Z,58.88
2019-03-22T09:45:14.176Z,58.33
2019-03-22T09:46:11.499Z,57.65
2019-03-22T09:47:11.572Z,56.47
2019-03-22T09:48:11.668Z,58.49
2019-03-22T09:49:11.720Z,57.14
2019-03-22T09:50:11.826Z,56.88
2019-03-22T09:51:11.852Z,55.92
2019-03-22T09:52:11.952Z,56.52
2019-03-22T09:53:12.005Z,56.14
2019-03-22T09:54:12.141Z,54.88
2019-03-22T09:55:14.193Z,55.27
2019-03-22T09:56:12.262Z,54.98
2019-03-22T09:57:12.273Z,54.88
2019-03-22T09:58:12.432Z,54.02
2019-03-22T09:59:12.516Z,54.21
2019-03-22T10:00:12.514Z,55.08
2019-03-22T10:01:23.200Z,54.60
2019-03-22T10:02:12.624Z,54.76
2019-03-22T10:03:12.742Z,55.63
2019-03-22T10:04:12.794Z,55.15
2019-03-22T10:05:12.846Z,56.30
2019-03-22T10:06:12.904Z,55.54
2019-03-22T10:07:13.081Z,55.34
2019-03-22T10:08:13.082Z,56.88
2019-03-22T10:09:13.186Z,56.30
2019-03-22T10:10:13.187Z,56.49
2019-03-22T10:11:13.304Z,55.46
2019-03-22T10:12:13.337Z,56.04
2019-03-22T10:13:13.483Z,55.73
2019-03-22T10:14:13.495Z,55.24
2019-03-22T10:15:13.529Z,55.34
2019-03-22T10:16:13.604Z,54.96
2019-03-22T10:17:13.692Z,55.34
2019-03-22T10:18:13.776Z,54.83
2019-03-22T10:19:13.813Z,56.01
2019-03-22T10:20:13.880Z,54.83
2019-03-22T10:21:22.377Z,56.21
2019-03-22T10:22:14.061Z,56.14
2019-03-22T10:23:14.128Z,55.73
2019-03-22T10:24:14.157Z,56.33
2019-03-22T10:25:14.229Z,54.96
2019-03-22T10:26:14.339Z,55.24
2019-03-22T10:27:14.430Z,54.96
2019-03-22T10:28:14.579Z,54.96
2019-03-22T10:29:14.522Z,54.16
2019-03-22T10:30:14.566Z,55.31
2019-03-22T10:31:14.697Z,55.38
2019-03-22T10:32:14.705Z,56.05
2019-03-22T10:33:22.759Z,56.54
2019-03-22T10:34:14.912Z,56.60
2019-03-22T10:35:25.313Z,56.80
2019-03-22T10:36:14.986Z,57.28
2019-03-22T10:37:15.046Z,57.25
2019-03-22T10:38:16.553Z,56.77
2019-03-22T10:39:15.186Z,56.96
2019-03-22T10:40:15.264Z,57.06
2019-03-22T10:41:15.330Z,56.74
2019-03-22T10:42:15.431Z,58.40
2019-03-22T10:43:15.470Z,57.22
2019-03-22T10:44:15.606Z,58.79
2019-03-22T10:45:15.596Z,57.54
2019-03-22T10:46:15.696Z,57.83
2019-03-22T10:47:18.045Z,57.51
2019-03-22T10:48:15.840Z,57.83
2019-03-22T10:49:15.875Z,56.96
2019-03-22T10:50:15.949Z,56.20
2019-03-22T10:51:16.090Z,55.26
2019-03-22T10:52:16.144Z,55.35
2019-03-22T10:53:16.205Z,55.16
2019-03-22T10:54:16.207Z,54.20
2019-03-22T10:55:29.325Z,55.07
2019-03-22T10:56:16.343Z,54.85
2019-03-22T10:57:16.411Z,55.52
2019-03-22T10:58:21.241Z,55.13
2019-03-22T10:59:16.556Z,54.94
2019-03-22T11:00:16.620Z,54.56
2019-03-22T11:01:16.689Z,54.27
2019-03-22T11:02:16.747Z,55.23
2019-03-22T11:03:16.827Z,54.85
2019-03-22T11:04:16.892Z,54.39
2019-03-22T11:05:16.958Z,54.68
2019-03-22T11:06:25.824Z,53.33
2019-03-22T11:07:17.099Z,53.43
2019-03-22T11:08:17.183Z,53.84
2019-03-22T11:09:17.224Z,52.75
2019-03-22T11:10:17.294Z,53.23
2019-03-22T11:11:17.363Z,53.14
2019-03-22T11:12:17.431Z,53.53
2019-03-22T11:13:17.509Z,54.00
2019-03-22T11:14:17.572Z,53.55
2019-03-22T11:15:17.628Z,54.10
2019-03-22T11:16:17.698Z,54.00
2019-03-22T11:17:17.766Z,53.91
2019-03-22T11:18:17.840Z,53.62
2019-03-22T11:19:17.904Z,53.23
2019-03-22T11:20:17.969Z,53.14
2019-03-22T11:21:18.033Z,53.43
2019-03-22T11:22:18.100Z,54.00
2019-03-22T11:23:18.276Z,53.53
2019-03-22T11:24:18.237Z,53.33
2019-03-22T11:25:18.304Z,53.43
2019-03-22T11:26:18.372Z,53.43
2019-03-22T11:27:18.445Z,52.47
2019-03-22T11:28:18.517Z,53.14
2019-03-22T11:29:18.581Z,52.66
2019-03-22T11:30:18.653Z,52.95
2019-03-22T11:31:23.713Z,52.85
2019-03-22T11:32:18.782Z,52.85
2019-03-22T11:33:18.883Z,53.05
2019-03-22T11:34:18.929Z,53.14
2019-03-22T11:35:18.981Z,54.13
2019-03-22T11:36:19.050Z,53.07
2019-03-22T11:37:19.118Z,52.97
2019-03-22T11:38:19.282Z,53.48
2019-03-22T11:39:19.321Z,53.00
2019-03-22T11:40:19.321Z,52.52
2019-03-22T11:41:19.390Z,52.23
2019-03-22T11:42:19.461Z,52.04
2019-03-22T11:43:19.529Z,52.71
2019-03-22T11:44:19.597Z,52.42
2019-03-22T11:45:19.657Z,51.75
2019-03-22T11:46:19.727Z,52.23
2019-03-22T11:47:19.797Z,52.42
2019-03-22T11:48:19.926Z,51.65
2019-03-22T11:49:19.941Z,52.33
2019-03-22T11:50:20.005Z,52.42
2019-03-22T11:51:20.070Z,52.33
2019-03-22T11:52:20.136Z,52.71
2019-03-22T11:53:20.344Z,53.00
2019-03-22T11:54:20.270Z,52.23
2019-03-22T11:55:20.338Z,52.42
2019-03-22T11:56:20.406Z,52.30
2019-03-22T11:57:20.474Z,51.92
2019-03-22T11:58:20.550Z,52.78
2019-03-22T11:59:20.619Z,53.36
2019-03-22T12:00:20.682Z,52.40
2019-03-22T12:01:22.465Z,52.49
2019-03-22T12:02:22.600Z,52.69
2019-03-22T12:03:20.892Z,53.00
2019-03-22T12:04:20.959Z,53.00
2019-03-22T12:05:21.019Z,52.33
2019-03-22T12:06:21.088Z,52.33
2019-03-22T12:07:21.159Z,52.71
2019-03-22T12:08:21.266Z,52.42
2019-03-22T12:09:22.962Z,51.84
2019-03-22T12:10:21.360Z,52.33
2019-03-22T12:11:21.431Z,52.83
2019-03-22T12:12:21.499Z,51.68
2019-03-22T12:13:21.568Z,52.35
2019-03-22T12:14:21.635Z,51.68
2019-03-22T12:15:21.694Z,50.71
2019-03-22T12:16:21.767Z,51.39
2019-03-22T12:17:21.831Z,50.90
2019-03-22T12:18:21.908Z,50.52
2019-03-22T12:19:21.975Z,49.94
2019-03-22T12:20:22.036Z,50.54
2019-03-22T12:21:22.103Z,50.74
2019-03-22T12:22:22.175Z,50.45
2019-03-22T12:23:22.347Z,49.68
2019-03-22T12:24:22.312Z,49.00
2019-03-22T12:25:22.375Z,49.58
2019-03-22T12:26:22.444Z,49.58
2019-03-22T12:27:22.517Z,49.77
2019-03-22T12:28:22.588Z,49.39
2019-03-22T12:29:22.656Z,49.68
2019-03-22T12:30:22.715Z,48.64
2019-03-22T12:31:22.788Z,48.52
2019-03-22T12:32:31.838Z,48.33
2019-03-22T12:33:22.944Z,46.90
2019-03-22T12:34:22.996Z,46.61
2019-03-22T12:35:23.060Z,46.90
2019-03-22T12:36:23.128Z,47.00
2019-03-22T12:37:23.205Z,46.03
2019-03-22T12:38:23.372Z,45.84
2019-03-22T12:39:23.332Z,44.59
2019-03-22T12:40:23.403Z,43.52
2019-03-22T12:41:23.469Z,43.33
2019-03-22T12:42:23.536Z,43.52
2019-03-22T12:43:23.612Z,43.60
2019-03-22T12:44:23.681Z,43.70
2019-03-22T12:45:23.741Z,44.76
2019-03-22T12:46:23.809Z,44.27
2019-03-22T12:47:23.880Z,43.98
2019-03-22T12:48:23.960Z,43.79
2019-03-22T12:49:24.025Z,43.33
2019-03-22T12:50:24.087Z,42.85
2019-03-22T12:51:24.157Z,42.08
2019-03-22T12:52:24.226Z,41.96
2019-03-22T12:53:24.293Z,43.02